Airfield :
LOGIN :

Register | Disclaimer

   EN    FR    IT 

 










Legend :    VFR   Marginal VFR   IFR   Intensive IFR   Very Intensive IFR
Visi :
Ceiling :
>= 8 km
>= 3000ft
5 to 8 km
1000 to 3000 ft
1500m to 5 km
500 to 1000 ft
800 to 1500m
200 to 500 ft
< 800m
< 200 ft
Symbols :   Thunderstorms  Fog  Heavy snow  Heavy precipitations  Wind > 20 kt
SIGMETs :     Misc.  Thunderstorms  Icing  Turbulence  Mountain Waves  Volcanic Ashes






- Airport Elevation : 157 ft
- IATA code : SXF


EDDB - Berlin Schönefeld

CURRENT METAR :
  • 032050Z 03006KT CAVOK 17/12 Q1011 NOSIG

EXPIRED METARs :
  • 032020Z 03005KT CAVOK 17/12 Q1010 NOSIG
  • 031950Z 05004KT CAVOK 17/12 Q1010 NOSIG
  • 031920Z 04006KT CAVOK 19/12 Q1010 NOSIG
  • 031850Z 05007KT CAVOK 20/11 Q1010 NOSIG
  • 031820Z 01005KT CAVOK 21/10 Q1010 NOSIG

TAF TAF EDDB
Valid from the 03 at 18:00 until the 04 at 18:00 UTC


031700Z 0318/0418 36005KT CAVOK
BECMG 0409/0412 33010KT



MET'MAP, your aeronautical weather chart ! - Copyright ORBIFLY December 2007 - Disclaimer

ORBIFLY MET'MAP TEAM :

Programming & Development : Alexandra Zaïnal
Concept & original design : Baudouin d'Aumeries
Assistance for programming : Marc-Olivier Méhu
Technical & hardware support : Manuel Goepfert

Contact : metmap@orbifly.com




SOURCES & CREDITS :

   NOAA